createdAt,value
2023-03-20T00:02:19.318Z,6.23
2023-03-20T00:04:45.982Z,6.20
2023-03-20T00:07:12.679Z,5.99
2023-03-20T00:09:39.422Z,6.12
2023-03-20T00:12:06.229Z,6.04
2023-03-20T00:14:34.304Z,6.03
2023-03-20T00:17:00.879Z,5.80
2023-03-20T00:19:31.861Z,5.86
2023-03-20T00:21:58.393Z,5.84
2023-03-20T00:24:25.692Z,5.83
2023-03-20T00:26:53.474Z,5.97
2023-03-20T00:29:26.155Z,5.94
2023-03-20T00:31:53.246Z,6.08
2023-03-20T00:34:23.388Z,5.83
2023-03-20T00:36:50.962Z,6.00
2023-03-20T00:39:17.421Z,5.89
2023-03-20T00:41:46.472Z,5.94
2023-03-20T00:44:31.576Z,6.11
2023-03-20T00:47:01.544Z,5.72
2023-03-20T00:49:30.833Z,6.06
2023-03-20T00:51:58.067Z,5.98
2023-03-20T00:54:25.383Z,6.49
2023-03-20T00:56:59.759Z,6.12
2023-03-20T00:59:31.340Z,6.14
2023-03-20T01:01:59.868Z,6.00
2023-03-20T01:04:31.306Z,6.12
2023-03-20T01:06:57.681Z,6.18
2023-03-20T01:09:24.041Z,6.26
2023-03-20T01:11:51.106Z,6.19
2023-03-20T01:14:18.878Z,6.28
2023-03-20T01:16:45.767Z,6.44
2023-03-20T01:19:16.725Z,6.49
2023-03-20T01:21:43.892Z,6.37
2023-03-20T01:24:10.362Z,6.22
2023-03-20T01:26:40.912Z,6.37
2023-03-20T01:29:23.951Z,6.32
2023-03-20T01:31:51.975Z,6.46
2023-03-20T01:34:19.673Z,6.46
2023-03-20T01:36:50.837Z,6.43
2023-03-20T01:39:19.099Z,6.27
2023-03-20T01:41:47.085Z,6.29
2023-03-20T01:44:32.004Z,6.32
2023-03-20T01:47:00.018Z,6.31
2023-03-20T01:49:26.517Z,6.31
2023-03-20T01:51:52.908Z,6.16
2023-03-20T01:54:21.701Z,6.48
2023-03-20T01:56:59.169Z,6.37
2023-03-20T01:59:49.888Z,6.13
2023-03-20T02:02:21.262Z,6.20
2023-03-20T02:04:52.325Z,5.93
2023-03-20T02:07:21.490Z,6.06
2023-03-20T02:09:49.211Z,6.22
2023-03-20T02:12:17.499Z,5.99
2023-03-20T02:14:46.913Z,6.09
2023-03-20T02:17:14.259Z,5.94
2023-03-20T02:19:58.912Z,6.13
2023-03-20T02:22:44.059Z,6.17
2023-03-20T02:25:32.271Z,6.09
2023-03-20T02:28:20.751Z,6.15
2023-03-20T02:30:56.879Z,6.13
2023-03-20T02:33:34.483Z,5.71
2023-03-20T02:36:22.196Z,5.95
2023-03-20T02:38:57.769Z,6.00
2023-03-20T02:41:32.248Z,5.69
2023-03-20T02:44:16.601Z,5.99
2023-03-20T02:46:55.024Z,5.97
2023-03-20T02:49:53.300Z,6.00
2023-03-20T02:52:33.895Z,5.54
2023-03-20T02:55:07.083Z,5.98
2023-03-20T02:57:55.008Z,6.00
2023-03-20T03:00:36.559Z,5.84
2023-03-20T03:03:13.714Z,5.92
2023-03-20T03:05:49.739Z,5.92
2023-03-20T03:08:20.621Z,5.92
2023-03-20T03:10:55.784Z,5.82
2023-03-20T03:13:27.499Z,6.06
2023-03-20T03:15:57.602Z,5.76
2023-03-20T03:18:26.910Z,6.05
2023-03-20T03:20:58.230Z,6.02
2023-03-20T03:23:43.125Z,6.06
2023-03-20T03:26:14.620Z,6.04
2023-03-20T03:28:44.809Z,6.42
2023-03-20T03:31:17.660Z,6.20
2023-03-20T03:33:51.799Z,5.92
2023-03-20T03:36:36.329Z,6.25
2023-03-20T03:39:08.866Z,6.31
2023-03-20T03:42:01.552Z,5.92
2023-03-20T03:44:46.596Z,6.10
2023-03-20T03:47:19.875Z,6.03
2023-03-20T03:49:54.077Z,6.01
2023-03-20T03:52:24.298Z,6.22
2023-03-20T03:54:57.450Z,6.19
2023-03-20T03:57:37.060Z,6.08
2023-03-20T04:00:06.679Z,6.14
2023-03-20T04:02:34.288Z,6.11
2023-03-20T04:05:03.108Z,6.28
2023-03-20T04:07:29.610Z,6.37
2023-03-20T04:09:56.590Z,6.19
2023-03-20T04:12:37.262Z,6.40
2023-03-20T04:15:04.742Z,6.46
2023-03-20T04:17:31.662Z,6.52
2023-03-20T04:19:58.103Z,6.34
2023-03-20T04:22:24.756Z,6.45
2023-03-20T04:24:51.237Z,6.18
2023-03-20T04:27:17.957Z,6.51
2023-03-20T04:29:44.579Z,6.24
2023-03-20T04:32:11.160Z,6.41
2023-03-20T04:34:37.542Z,6.33
2023-03-20T04:37:05.434Z,6.28
2023-03-20T04:39:31.833Z,6.38
2023-03-20T04:41:58.211Z,6.34
2023-03-20T04:44:24.661Z,6.46
2023-03-20T04:46:51.139Z,6.34
2023-03-20T04:49:17.522Z,6.38
2023-03-20T04:51:43.952Z,6.51
2023-03-20T04:54:10.355Z,6.51
2023-03-20T04:56:36.747Z,6.74
2023-03-20T04:59:03.131Z,6.56
2023-03-20T05:01:29.661Z,6.39
2023-03-20T05:04:01.039Z,5.92
2023-03-20T05:06:28.508Z,6.40
2023-03-20T05:08:55.290Z,6.25
2023-03-20T05:11:21.719Z,6.34
2023-03-20T05:13:48.125Z,6.40
2023-03-20T05:16:14.611Z,6.34
2023-03-20T05:18:41.097Z,6.67
2023-03-20T05:21:08.472Z,6.38
2023-03-20T05:23:35.196Z,6.53
2023-03-20T05:26:01.754Z,6.53
2023-03-20T05:28:28.753Z,6.55
2023-03-20T05:30:56.281Z,6.54
2023-03-20T05:33:23.162Z,6.40
2023-03-20T05:35:49.618Z,6.40
2023-03-20T05:38:16.142Z,6.50
2023-03-20T05:40:42.611Z,6.76
2023-03-20T05:43:09.088Z,6.62
2023-03-20T05:45:35.690Z,6.68
2023-03-20T05:48:02.349Z,6.72
2023-03-20T05:50:28.741Z,6.74
2023-03-20T05:52:55.178Z,6.78
2023-03-20T05:55:21.566Z,6.79
2023-03-20T05:57:48.169Z,6.67
2023-03-20T06:00:15.546Z,6.67
2023-03-20T06:02:42.001Z,6.51
2023-03-20T06:05:08.827Z,6.63
2023-03-20T06:07:35.319Z,6.77
2023-03-20T06:10:01.900Z,6.71
2023-03-20T06:12:28.444Z,6.85
2023-03-20T06:14:54.834Z,6.68
2023-03-20T06:17:21.280Z,6.78
2023-03-20T06:19:47.670Z,7.05
2023-03-20T06:22:14.087Z,7.07
2023-03-20T06:24:41.487Z,7.24
2023-03-20T06:27:07.892Z,7.36
2023-03-20T06:29:34.321Z,7.52
2023-03-20T06:32:00.944Z,7.49
2023-03-20T06:34:27.709Z,7.53
2023-03-20T06:36:54.141Z,7.44
2023-03-20T06:39:20.944Z,7.61
2023-03-20T06:41:47.438Z,7.74
2023-03-20T06:44:13.904Z,7.73
2023-03-20T06:46:40.422Z,7.98
2023-03-20T06:49:06.958Z,8.06
2023-03-20T06:51:33.357Z,7.87
2023-03-20T06:53:59.754Z,8.11
2023-03-20T06:56:26.184Z,8.35
2023-03-20T06:58:52.599Z,8.42
2023-03-20T07:01:20.350Z,8.28
2023-03-20T07:03:47.446Z,8.21
2023-03-20T07:06:13.816Z,7.50
2023-03-20T07:08:40.243Z,8.11
2023-03-20T07:11:07.048Z,8.39
2023-03-20T07:13:33.803Z,8.28
2023-03-20T07:16:04.828Z,8.22
2023-03-20T07:18:31.991Z,8.12
2023-03-20T07:21:02.323Z,7.95
2023-03-20T07:23:29.714Z,8.02
2023-03-20T07:25:56.663Z,7.64
2023-03-20T07:28:23.043Z,7.85
2023-03-20T07:30:49.630Z,8.19
2023-03-20T07:33:16.214Z,8.34
2023-03-20T07:35:43.339Z,8.49
2023-03-20T07:38:09.743Z,8.67
2023-03-20T07:40:36.604Z,8.61
2023-03-20T07:43:03.001Z,8.92
2023-03-20T07:45:29.480Z,9.16
2023-03-20T07:47:55.935Z,9.02
2023-03-20T07:50:22.377Z,9.23
2023-03-20T07:52:49.871Z,9.35
2023-03-20T07:55:18.460Z,9.03
2023-03-20T07:57:45.344Z,9.34
2023-03-20T08:00:12.598Z,9.59
2023-03-20T08:02:39.057Z,9.30
2023-03-20T08:05:05.814Z,9.02
2023-03-20T08:07:32.272Z,9.02
2023-03-20T08:09:58.821Z,8.96
2023-03-20T08:12:27.311Z,8.87
2023-03-20T08:14:53.701Z,8.58
2023-03-20T08:17:21.872Z,8.88
2023-03-20T08:19:48.479Z,8.96
2023-03-20T08:22:14.867Z,8.83
2023-03-20T08:24:41.334Z,8.97
2023-03-20T08:27:07.823Z,9.06
2023-03-20T08:29:34.258Z,9.19
2023-03-20T08:32:00.841Z,9.03
2023-03-20T08:34:27.264Z,9.03
2023-03-20T08:36:53.807Z,9.43
2023-03-20T08:39:20.213Z,9.70
2023-03-20T08:41:46.920Z,9.68
2023-03-20T08:44:13.940Z,9.75
2023-03-20T08:46:40.508Z,9.72
2023-03-20T08:49:07.211Z,9.71
2023-03-20T08:51:33.935Z,9.63
2023-03-20T08:54:00.614Z,9.65
2023-03-20T08:56:27.054Z,9.50
2023-03-20T08:58:56.118Z,9.63
2023-03-20T09:01:23.099Z,9.97
2023-03-20T09:03:49.789Z,9.23
2023-03-20T09:06:16.219Z,9.33
2023-03-20T09:08:42.613Z,9.70
2023-03-20T09:11:08.996Z,9.53
2023-03-20T09:13:35.943Z,9.48
2023-03-20T09:16:03.241Z,9.30
2023-03-20T09:18:29.757Z,9.19
2023-03-20T09:20:56.729Z,9.47
2023-03-20T09:23:23.248Z,9.85
2023-03-20T09:25:49.844Z,9.64
2023-03-20T09:28:16.309Z,9.30
2023-03-20T09:30:43.654Z,9.92
2023-03-20T09:33:10.596Z,9.97
2023-03-20T09:35:37.521Z,10.14
2023-03-20T09:38:03.961Z,10.42
2023-03-20T09:40:37.698Z,9.98
2023-03-20T09:43:22.517Z,10.17
2023-03-20T09:46:02.800Z,10.17
2023-03-20T09:48:47.612Z,9.93
2023-03-20T09:51:19.901Z,10.18
2023-03-20T09:54:03.546Z,10.14
2023-03-20T09:56:31.231Z,9.82
2023-03-20T09:59:03.327Z,9.86
2023-03-20T10:01:43.967Z,9.85
2023-03-20T10:04:12.152Z,9.48
2023-03-20T10:06:39.009Z,9.59
2023-03-20T10:09:22.356Z,9.93
2023-03-20T10:12:22.347Z,9.94
2023-03-20T10:15:19.016Z,9.99
2023-03-20T10:18:00.377Z,9.99
2023-03-20T10:20:30.062Z,10.46
2023-03-20T10:23:04.359Z,11.24
2023-03-20T10:25:40.848Z,11.17
2023-03-20T10:28:12.385Z,10.57
2023-03-20T10:30:51.004Z,10.49
2023-03-20T10:33:48.366Z,10.31
2023-03-20T10:36:52.635Z,10.56
2023-03-20T10:39:50.387Z,10.79
2023-03-20T10:42:22.785Z,10.76
2023-03-20T10:44:56.276Z,10.99
2023-03-20T10:47:27.009Z,10.75
2023-03-20T10:50:05.894Z,10.75
2023-03-20T10:52:35.971Z,11.14
2023-03-20T10:55:11.785Z,11.10
2023-03-20T10:57:43.116Z,10.78
2023-03-20T11:00:21.362Z,10.50
2023-03-20T11:02:48.180Z,10.84
2023-03-20T11:05:28.872Z,11.01
2023-03-20T11:08:05.794Z,10.70
2023-03-20T11:10:36.144Z,11.02
2023-03-20T11:13:27.920Z,11.13
2023-03-20T11:15:55.096Z,11.14
2023-03-20T11:18:24.962Z,11.21
2023-03-20T11:20:55.357Z,11.39
2023-03-20T11:23:28.274Z,11.23
2023-03-20T11:26:06.719Z,11.46
2023-03-20T11:28:39.500Z,11.33
2023-03-20T11:31:19.818Z,11.15
2023-03-20T11:33:52.854Z,10.73
2023-03-20T11:36:30.042Z,11.00
2023-03-20T11:39:22.220Z,11.30
2023-03-20T11:41:52.847Z,11.34
2023-03-20T11:44:30.919Z,11.52
2023-03-20T11:47:22.590Z,11.94
2023-03-20T11:49:56.013Z,12.28
2023-03-20T11:52:48.715Z,12.39
2023-03-20T11:55:33.279Z,12.33
2023-03-20T11:58:01.716Z,11.89
2023-03-20T12:00:42.813Z,11.42
2023-03-20T12:03:37.325Z,11.69
2023-03-20T12:06:07.085Z,11.31
2023-03-20T12:08:39.650Z,11.30
2023-03-20T12:11:34.724Z,11.25
2023-03-20T12:14:05.421Z,10.99
2023-03-20T12:16:35.889Z,10.60
2023-03-20T12:19:11.373Z,10.75
2023-03-20T12:22:04.405Z,10.72
2023-03-20T12:24:39.376Z,11.08
2023-03-20T12:27:29.740Z,11.48
2023-03-20T12:30:03.649Z,11.41
2023-03-20T12:32:41.739Z,10.98
2023-03-20T12:35:17.607Z,11.31
2023-03-20T12:37:44.192Z,11.27
2023-03-20T12:40:18.949Z,11.25
2023-03-20T12:43:25.537Z,11.20
2023-03-20T12:46:09.638Z,11.46
2023-03-20T12:49:08.566Z,11.60
2023-03-20T12:51:56.292Z,11.87
2023-03-20T12:54:32.197Z,11.47
2023-03-20T12:57:37.800Z,11.44
2023-03-20T13:00:16.443Z,11.69
2023-03-20T13:02:42.787Z,11.85
2023-03-20T13:05:32.309Z,11.84
2023-03-20T13:08:27.584Z,11.49
2023-03-20T13:10:58.003Z,11.94
2023-03-20T13:13:58.679Z,12.35
2023-03-20T13:16:40.584Z,12.27
2023-03-20T13:19:31.492Z,12.48
2023-03-20T13:22:19.188Z,11.86
2023-03-20T13:24:53.747Z,12.35
2023-03-20T13:27:53.582Z,12.24
2023-03-20T13:30:37.042Z,11.92
2023-03-20T13:33:38.985Z,12.64
2023-03-20T13:36:25.401Z,12.70
2023-03-20T13:39:03.970Z,12.75
2023-03-20T13:41:32.914Z,12.91
2023-03-20T13:44:04.639Z,12.62
2023-03-20T13:46:49.655Z,12.82
2023-03-20T13:49:30.695Z,12.68
2023-03-20T13:52:06.622Z,12.67
2023-03-20T13:55:14.072Z,12.38
2023-03-20T13:57:59.010Z,12.55
2023-03-20T14:00:35.593Z,12.41
2023-03-20T14:03:21.371Z,12.37
2023-03-20T14:05:54.874Z,11.78
2023-03-20T14:08:27.259Z,11.84
2023-03-20T14:11:08.919Z,11.67
2023-03-20T14:13:35.872Z,11.72
2023-03-20T14:16:13.787Z,12.07
2023-03-20T14:19:25.700Z,11.73
2023-03-20T14:21:55.576Z,11.26
2023-03-20T14:24:26.441Z,11.22
2023-03-20T14:27:00.577Z,11.14
2023-03-20T14:29:34.487Z,11.14
2023-03-20T14:32:14.259Z,11.78
2023-03-20T14:34:53.004Z,11.82
2023-03-20T14:37:28.359Z,11.58
2023-03-20T14:40:04.750Z,11.70
2023-03-20T14:43:07.840Z,11.85
2023-03-20T14:45:45.309Z,12.37
2023-03-20T14:48:34.842Z,12.68
2023-03-20T14:51:21.950Z,12.62
2023-03-20T14:53:57.031Z,12.16
2023-03-20T14:56:30.193Z,12.37
2023-03-20T14:59:01.218Z,12.03
2023-03-20T15:01:43.400Z,11.47
2023-03-20T15:04:23.232Z,11.92
2023-03-20T15:06:54.336Z,11.64
2023-03-20T15:09:23.556Z,11.43
2023-03-20T15:11:52.520Z,11.37
2023-03-20T15:14:25.006Z,11.21
2023-03-20T15:16:58.939Z,11.85
2023-03-20T15:19:25.445Z,11.68
2023-03-20T15:21:53.608Z,12.36
2023-03-20T15:24:23.034Z,12.23
2023-03-20T15:26:56.008Z,12.03
2023-03-20T15:29:24.845Z,11.61
2023-03-20T15:32:13.504Z,11.66
2023-03-20T15:34:42.719Z,11.71
2023-03-20T15:37:14.373Z,11.89
2023-03-20T15:39:51.811Z,11.66
2023-03-20T15:42:24.937Z,11.48
2023-03-20T15:44:58.756Z,11.65
2023-03-20T15:47:26.618Z,11.76
2023-03-20T15:50:00.145Z,11.51
2023-03-20T15:52:53.213Z,12.01
2023-03-20T15:55:28.035Z,12.15
2023-03-20T15:58:00.822Z,11.51
2023-03-20T16:00:31.332Z,11.53
2023-03-20T16:03:00.832Z,11.66
2023-03-20T16:05:29.512Z,11.35
2023-03-20T16:07:56.365Z,11.07
2023-03-20T16:10:38.150Z,11.04
2023-03-20T16:13:07.510Z,10.81
2023-03-20T16:15:34.530Z,10.37
2023-03-20T16:18:03.823Z,10.63
2023-03-20T16:20:36.434Z,10.40
2023-03-20T16:23:07.332Z,10.08
2023-03-20T16:25:43.944Z,9.96
2023-03-20T16:28:14.733Z,10.18
2023-03-20T16:30:41.291Z,10.15
2023-03-20T16:33:16.637Z,10.08
2023-03-20T16:35:45.832Z,9.94
2023-03-20T16:38:31.464Z,10.01
2023-03-20T16:41:14.112Z,9.78
2023-03-20T16:43:41.244Z,9.57
2023-03-20T16:46:07.777Z,9.27
2023-03-20T16:48:37.784Z,9.34
2023-03-20T16:51:27.943Z,9.54
2023-03-20T16:53:57.510Z,9.35
2023-03-20T16:56:37.700Z,9.64
2023-03-20T16:59:09.116Z,9.50
2023-03-20T17:01:36.194Z,9.25
2023-03-20T17:04:29.241Z,8.95
2023-03-20T17:06:59.966Z,8.86
2023-03-20T17:09:30.375Z,8.74
2023-03-20T17:12:14.343Z,8.38
2023-03-20T17:14:41.577Z,8.32
2023-03-20T17:17:18.300Z,8.17
2023-03-20T17:19:50.167Z,8.29
2023-03-20T17:22:18.398Z,8.20
2023-03-20T17:24:44.877Z,7.77
2023-03-20T17:27:13.050Z,7.82
2023-03-20T17:29:40.591Z,8.06
2023-03-20T17:32:12.134Z,8.07
2023-03-20T17:34:39.005Z,7.99
2023-03-20T17:37:07.063Z,7.72
2023-03-20T17:39:33.807Z,7.69
2023-03-20T17:42:00.200Z,7.06
2023-03-20T17:44:26.676Z,7.52
2023-03-20T17:46:58.712Z,7.38
2023-03-20T17:49:27.564Z,7.38
2023-03-20T17:51:55.271Z,7.00
2023-03-20T17:54:21.707Z,6.78
2023-03-20T17:56:58.370Z,6.77
2023-03-20T17:59:28.896Z,6.43
2023-03-20T18:01:55.340Z,6.72
2023-03-20T18:04:21.856Z,6.67
2023-03-20T18:06:49.160Z,6.45
2023-03-20T18:09:16.088Z,6.09
2023-03-20T18:11:42.506Z,5.96
2023-03-20T18:14:08.980Z,6.00
2023-03-20T18:16:35.448Z,6.03
2023-03-20T18:19:02.662Z,5.72
2023-03-20T18:21:29.074Z,5.68
2023-03-20T18:23:55.562Z,5.86
2023-03-20T18:26:24.890Z,5.74
2023-03-20T18:28:53.041Z,5.62
2023-03-20T18:31:20.509Z,5.96
2023-03-20T18:33:52.216Z,5.32
2023-03-20T18:36:24.387Z,5.18
2023-03-20T18:38:51.583Z,5.35
2023-03-20T18:41:18.046Z,5.27
2023-03-20T18:43:46.382Z,5.46
2023-03-20T18:46:21.325Z,5.50
2023-03-20T18:48:49.321Z,5.43
2023-03-20T18:51:15.965Z,5.08
2023-03-20T18:53:42.704Z,5.48
2023-03-20T18:56:16.239Z,5.41
2023-03-20T18:58:43.676Z,5.23
2023-03-20T19:01:12.686Z,5.29
2023-03-20T19:03:41.361Z,5.27
2023-03-20T19:06:19.364Z,4.96
2023-03-20T19:08:46.804Z,4.83
2023-03-20T19:11:20.569Z,4.91
2023-03-20T19:13:51.059Z,4.96
2023-03-20T19:16:31.863Z,4.87
2023-03-20T19:19:11.816Z,4.84
2023-03-20T19:21:38.329Z,4.76
2023-03-20T19:24:06.684Z,5.07
2023-03-20T19:26:36.694Z,5.22
2023-03-20T19:29:10.519Z,5.45
2023-03-20T19:31:37.386Z,5.53
2023-03-20T19:34:03.864Z,5.25
2023-03-20T19:36:34.465Z,5.41
2023-03-20T19:39:13.946Z,5.22
2023-03-20T19:41:40.675Z,5.27
2023-03-20T19:44:07.222Z,5.29
2023-03-20T19:46:40.326Z,5.10
2023-03-20T19:49:19.578Z,5.34
2023-03-20T19:51:47.089Z,5.36
2023-03-20T19:54:13.492Z,5.23
2023-03-20T19:56:40.481Z,5.24
2023-03-20T19:59:06.890Z,5.27
2023-03-20T20:01:33.398Z,5.27
2023-03-20T20:03:59.964Z,5.16
2023-03-20T20:06:31.277Z,4.93
2023-03-20T20:08:58.786Z,5.21
2023-03-20T20:11:25.376Z,5.12
2023-03-20T20:14:08.130Z,4.77
2023-03-20T20:16:37.485Z,5.01
2023-03-20T20:19:07.327Z,5.25
2023-03-20T20:24:20.711Z,5.14
2023-03-20T20:26:54.868Z,5.44
2023-03-20T20:29:24.715Z,5.43
2023-03-20T20:31:51.494Z,5.45
2023-03-20T20:39:53.867Z,5.23
2023-03-20T20:42:20.600Z,4.96
2023-03-20T20:44:49.347Z,5.24
2023-03-20T20:47:17.945Z,5.05
2023-03-20T20:49:46.797Z,4.95
2023-03-20T20:52:14.822Z,5.24
2023-03-20T20:54:48.292Z,5.24
2023-03-20T20:57:15.927Z,5.00
2023-03-20T20:59:42.452Z,5.10
2023-03-20T21:02:13.097Z,5.09
2023-03-20T21:04:41.829Z,5.33
2023-03-20T21:07:27.818Z,5.42
2023-03-20T21:09:54.209Z,5.27
2023-03-20T21:12:34.638Z,5.19
2023-03-20T21:15:03.589Z,5.18
2023-03-20T21:17:30.508Z,5.46
2023-03-20T21:19:56.967Z,5.41
2023-03-20T21:22:24.038Z,5.53
2023-03-20T21:24:52.030Z,5.50
2023-03-20T21:27:21.538Z,5.36
2023-03-20T21:29:49.993Z,5.43
2023-03-20T21:32:19.802Z,5.40
2023-03-20T21:34:47.890Z,5.37
2023-03-20T21:38:22.855Z,5.55
2023-03-20T21:40:06.750Z,5.34
2023-03-20T21:42:34.841Z,5.57
2023-03-20T21:48:28.595Z,5.44
2023-03-20T21:51:09.796Z,5.56
2023-03-20T21:59:36.980Z,5.63
2023-03-20T22:02:06.330Z,5.86
2023-03-20T22:07:49.083Z,5.68
2023-03-20T22:11:00.764Z,5.85
2023-03-20T22:19:18.353Z,5.68
2023-03-20T22:21:55.935Z,5.70
2023-03-20T22:27:34.798Z,5.60
2023-03-20T22:30:07.206Z,5.62
2023-03-20T22:46:39.937Z,5.61
2023-03-20T22:48:59.160Z,5.55
2023-03-20T22:51:34.329Z,5.53
2023-03-20T22:54:02.339Z,5.43
2023-03-20T22:56:28.775Z,5.40
2023-03-20T22:58:55.243Z,5.20
2023-03-20T23:01:21.675Z,5.25
2023-03-20T23:03:48.148Z,5.07
2023-03-20T23:06:21.002Z,5.13
2023-03-20T23:08:55.116Z,5.10
2023-03-20T23:11:25.135Z,5.05
2023-03-20T23:13:52.333Z,5.20
2023-03-20T23:16:19.306Z,4.83
2023-03-20T23:18:45.964Z,4.74
2023-03-20T23:21:12.387Z,4.59
2023-03-20T23:23:39.222Z,4.49
2023-03-20T23:26:07.241Z,4.21
2023-03-20T23:28:35.430Z,4.50
2023-03-20T23:31:11.365Z,4.36
2023-03-20T23:33:39.361Z,4.32
2023-03-20T23:36:18.595Z,4.44
2023-03-20T23:38:51.576Z,4.21
2023-03-20T23:41:18.971Z,4.44
2023-03-20T23:43:45.732Z,4.23
2023-03-20T23:46:12.311Z,4.14
2023-03-20T23:48:39.267Z,4.20
2023-03-20T23:51:06.684Z,4.22
2023-03-20T23:53:33.277Z,4.08
2023-03-20T23:55:59.757Z,3.90
2023-03-20T23:58:27.071Z,3.96
